sensor_id;sensor_type;location;lat;lon;timestamp;temperature;humidity
3330;DHT22;1677;49.576;10.990;2022-08-21T00:01:18;21.50;99.90
3330;DHT22;1677;49.576;10.990;2022-08-21T00:03:45;21.10;99.90
3330;DHT22;1677;49.576;10.990;2022-08-21T00:06:11;20.70;99.90
3330;DHT22;1677;49.576;10.990;2022-08-21T00:08:36;20.50;99.90
3330;DHT22;1677;49.576;10.990;2022-08-21T00:11:03;20.60;99.90
3330;DHT22;1677;49.576;10.990;2022-08-21T00:13:29;21.30;99.90
3330;DHT22;1677;49.576;10.990;2022-08-21T00:15:55;21.60;99.90
3330;DHT22;1677;49.576;10.990;2022-08-21T00:18:20;22.10;99.90
3330;DHT22;1677;49.576;10.990;2022-08-21T00:20:47;22.40;99.90
3330;DHT22;1677;49.576;10.990;2022-08-21T00:23:13;22.60;99.90
3330;DHT22;1677;49.576;10.990;2022-08-21T00:25:39;22.70;99.90
3330;DHT22;1677;49.576;10.990;2022-08-21T00:28:05;22.40;99.90
3330;DHT22;1677;49.576;10.990;2022-08-21T00:30:32;21.70;99.90
3330;DHT22;1677;49.576;10.990;2022-08-21T00:32:58;21.30;99.90
3330;DHT22;1677;49.576;10.990;2022-08-21T00:35:29;20.80;99.90
3330;DHT22;1677;49.576;10.990;2022-08-21T00:37:55;20.40;99.90
3330;DHT22;1677;49.576;10.990;2022-08-21T00:40:26;20.10;99.90
3330;DHT22;1677;49.576;10.990;2022-08-21T00:42:52;20.10;99.90
3330;DHT22;1677;49.576;10.990;2022-08-21T00:45:17;20.60;99.90
3330;DHT22;1677;49.576;10.990;2022-08-21T00:47:43;21.20;99.90
3330;DHT22;1677;49.576;10.990;2022-08-21T00:50:11;22.00;99.90
3330;DHT22;1677;49.576;10.990;2022-08-21T00:52:37;22.50;99.90
3330;DHT22;1677;49.576;10.990;2022-08-21T00:55:07;22.70;99.90
3330;DHT22;1677;49.576;10.990;2022-08-21T00:57:42;22.50;99.90
3330;DHT22;1677;49.576;10.990;2022-08-21T01:00:12;22.00;99.90
3330;DHT22;1677;49.576;10.990;2022-08-21T01:02:38;21.40;99.90
3330;DHT22;1677;49.576;10.990;2022-08-21T01:05:05;21.00;99.90
3330;DHT22;1677;49.576;10.990;2022-08-21T01:07:31;20.70;99.90
3330;DHT22;1677;49.576;10.990;2022-08-21T01:09:57;20.30;99.90
3330;DHT22;1677;49.576;10.990;2022-08-21T01:12:23;20.00;99.90
3330;DHT22;1677;49.576;10.990;2022-08-21T01:14:49;20.20;99.90
3330;DHT22;1677;49.576;10.990;2022-08-21T01:17:16;20.80;99.90
3330;DHT22;1677;49.576;10.990;2022-08-21T01:19:42;21.00;99.90
3330;DHT22;1677;49.576;10.990;2022-08-21T01:22:08;21.50;99.90
3330;DHT22;1677;49.576;10.990;2022-08-21T01:24:35;21.70;99.90
3330;DHT22;1677;49.576;10.990;2022-08-21T01:27:01;21.90;99.90
3330;DHT22;1677;49.576;10.990;2022-08-21T01:29:47;21.60;99.90
3330;DHT22;1677;49.576;10.990;2022-08-21T01:32:18;21.20;99.90
3330;DHT22;1677;49.576;10.990;2022-08-21T01:34:46;20.70;99.90
3330;DHT22;1677;49.576;10.990;2022-08-21T01:37:12;20.20;99.90
3330;DHT22;1677;49.576;10.990;2022-08-21T01:39:38;19.70;99.90
3330;DHT22;1677;49.576;10.990;2022-08-21T01:42:05;19.40;99.90
3330;DHT22;1677;49.576;10.990;2022-08-21T01:44:31;19.20;99.90
3330;DHT22;1677;49.576;10.990;2022-08-21T01:46:59;19.30;99.90
3330;DHT22;1677;49.576;10.990;2022-08-21T01:49:26;20.00;99.90
3330;DHT22;1677;49.576;10.990;2022-08-21T01:51:51;20.70;99.90
3330;DHT22;1677;49.576;10.990;2022-08-21T01:54:17;21.30;99.90
3330;DHT22;1677;49.576;10.990;2022-08-21T01:56:48;21.70;99.90
3330;DHT22;1677;49.576;10.990;2022-08-21T01:59:14;21.90;99.90
3330;DHT22;1677;49.576;10.990;2022-08-21T02:01:40;21.50;99.90
3330;DHT22;1677;49.576;10.990;2022-08-21T02:04:07;20.90;99.90
3330;DHT22;1677;49.576;10.990;2022-08-21T02:06:33;20.40;99.90
3330;DHT22;1677;49.576;10.990;2022-08-21T02:09:00;20.00;99.90
3330;DHT22;1677;49.576;10.990;2022-08-21T02:11:26;19.80;99.90
3330;DHT22;1677;49.576;10.990;2022-08-21T02:13:51;19.60;99.90
3330;DHT22;1677;49.576;10.990;2022-08-21T02:16:17;19.30;99.90
3330;DHT22;1677;49.576;10.990;2022-08-21T02:18:43;19.50;99.90
3330;DHT22;1677;49.576;10.990;2022-08-21T02:21:08;20.20;99.90
3330;DHT22;1677;49.576;10.990;2022-08-21T02:23:34;20.80;99.90
3330;DHT22;1677;49.576;10.990;2022-08-21T02:26:01;21.40;99.90
3330;DHT22;1677;49.576;10.990;2022-08-21T02:28:28;21.50;99.90
3330;DHT22;1677;49.576;10.990;2022-08-21T02:30:55;21.40;99.90
3330;DHT22;1677;49.576;10.990;2022-08-21T02:33:21;21.20;99.90
3330;DHT22;1677;49.576;10.990;2022-08-21T02:35:48;20.80;99.90
3330;DHT22;1677;49.576;10.990;2022-08-21T02:38:20;20.40;99.90
3330;DHT22;1677;49.576;10.990;2022-08-21T02:40:48;19.90;99.90
3330;DHT22;1677;49.576;10.990;2022-08-21T02:43:14;19.60;99.90
3330;DHT22;1677;49.576;10.990;2022-08-21T02:45:43;19.40;99.90
3330;DHT22;1677;49.576;10.990;2022-08-21T02:48:10;19.30;99.90
3330;DHT22;1677;49.576;10.990;2022-08-21T02:50:42;19.70;99.90
3330;DHT22;1677;49.576;10.990;2022-08-21T02:53:10;20.30;99.90
3330;DHT22;1677;49.576;10.990;2022-08-21T02:55:37;21.00;99.90
3330;DHT22;1677;49.576;10.990;2022-08-21T02:58:05;21.40;99.90
3330;DHT22;1677;49.576;10.990;2022-08-21T03:00:33;21.50;99.90
3330;DHT22;1677;49.576;10.990;2022-08-21T03:02:59;21.20;99.90
3330;DHT22;1677;49.576;10.990;2022-08-21T03:05:26;20.80;99.90
3330;DHT22;1677;49.576;10.990;2022-08-21T03:07:53;20.40;99.90
3330;DHT22;1677;49.576;10.990;2022-08-21T03:10:20;20.00;99.90
3330;DHT22;1677;49.576;10.990;2022-08-21T03:12:46;19.70;99.90
3330;DHT22;1677;49.576;10.990;2022-08-21T03:15:14;19.40;99.90
3330;DHT22;1677;49.576;10.990;2022-08-21T03:17:40;19.20;99.90
3330;DHT22;1677;49.576;10.990;2022-08-21T03:20:07;19.30;99.90
3330;DHT22;1677;49.576;10.990;2022-08-21T03:22:33;19.70;99.90
3330;DHT22;1677;49.576;10.990;2022-08-21T03:24:59;20.40;99.90
3330;DHT22;1677;49.576;10.990;2022-08-21T03:27:26;21.00;99.90
3330;DHT22;1677;49.576;10.990;2022-08-21T03:29:53;21.20;99.90
3330;DHT22;1677;49.576;10.990;2022-08-21T03:32:18;21.20;99.90
3330;DHT22;1677;49.576;10.990;2022-08-21T03:34:45;20.90;99.90
3330;DHT22;1677;49.576;10.990;2022-08-21T03:37:11;20.50;99.90
3330;DHT22;1677;49.576;10.990;2022-08-21T03:39:37;20.10;99.90
3330;DHT22;1677;49.576;10.990;2022-08-21T03:42:03;19.70;99.90
3330;DHT22;1677;49.576;10.990;2022-08-21T03:44:30;19.40;99.90
3330;DHT22;1677;49.576;10.990;2022-08-21T03:46:57;19.20;99.90
3330;DHT22;1677;49.576;10.990;2022-08-21T03:49:23;19.00;99.90
3330;DHT22;1677;49.576;10.990;2022-08-21T03:51:49;18.90;99.90
3330;DHT22;1677;49.576;10.990;2022-08-21T03:54:15;19.20;99.90
3330;DHT22;1677;49.576;10.990;2022-08-21T03:56:40;19.80;99.90
3330;DHT22;1677;49.576;10.990;2022-08-21T03:59:06;20.50;99.90
3330;DHT22;1677;49.576;10.990;2022-08-21T04:01:32;20.80;99.90
3330;DHT22;1677;49.576;10.990;2022-08-21T04:03:57;20.90;99.90
3330;DHT22;1677;49.576;10.990;2022-08-21T04:06:23;20.80;99.90
3330;DHT22;1677;49.576;10.990;2022-08-21T04:08:50;20.40;99.90
3330;DHT22;1677;49.576;10.990;2022-08-21T04:11:15;20.00;99.90
3330;DHT22;1677;49.576;10.990;2022-08-21T04:13:41;19.60;99.90
3330;DHT22;1677;49.576;10.990;2022-08-21T04:16:07;19.30;99.90
3330;DHT22;1677;49.576;10.990;2022-08-21T04:18:33;19.10;99.90
3330;DHT22;1677;49.576;10.990;2022-08-21T04:20:59;19.00;99.90
3330;DHT22;1677;49.576;10.990;2022-08-21T04:23:27;19.10;99.90
3330;DHT22;1677;49.576;10.990;2022-08-21T04:25:54;19.50;99.90
3330;DHT22;1677;49.576;10.990;2022-08-21T04:28:20;20.20;99.90
3330;DHT22;1677;49.576;10.990;2022-08-21T04:30:46;20.80;99.90
3330;DHT22;1677;49.576;10.990;2022-08-21T04:33:12;21.30;99.90
3330;DHT22;1677;49.576;10.990;2022-08-21T04:35:37;21.10;99.90
3330;DHT22;1677;49.576;10.990;2022-08-21T04:38:03;20.70;99.90
3330;DHT22;1677;49.576;10.990;2022-08-21T04:40:29;20.40;99.90
3330;DHT22;1677;49.576;10.990;2022-08-21T04:42:58;19.90;99.90
3330;DHT22;1677;49.576;10.990;2022-08-21T04:45:28;19.50;99.90
3330;DHT22;1677;49.576;10.990;2022-08-21T04:47:57;19.30;99.90
3330;DHT22;1677;49.576;10.990;2022-08-21T04:50:28;19.00;99.90
3330;DHT22;1677;49.576;10.990;2022-08-21T04:52:55;18.80;99.90
3330;DHT22;1677;49.576;10.990;2022-08-21T04:55:21;18.80;99.90
3330;DHT22;1677;49.576;10.990;2022-08-21T04:57:48;19.10;99.90
3330;DHT22;1677;49.576;10.990;2022-08-21T05:00:16;19.90;99.90
3330;DHT22;1677;49.576;10.990;2022-08-21T05:02:44;20.40;99.90
3330;DHT22;1677;49.576;10.990;2022-08-21T05:05:09;20.90;99.90
3330;DHT22;1677;49.576;10.990;2022-08-21T05:07:35;20.90;99.90
3330;DHT22;1677;49.576;10.990;2022-08-21T05:10:02;20.60;99.90
3330;DHT22;1677;49.576;10.990;2022-08-21T05:12:28;20.30;99.90
3330;DHT22;1677;49.576;10.990;2022-08-21T05:14:53;19.90;99.90
3330;DHT22;1677;49.576;10.990;2022-08-21T05:17:19;19.60;99.90
3330;DHT22;1677;49.576;10.990;2022-08-21T05:19:45;19.20;99.90
3330;DHT22;1677;49.576;10.990;2022-08-21T05:22:10;19.00;99.90
3330;DHT22;1677;49.576;10.990;2022-08-21T05:24:36;18.80;99.90
3330;DHT22;1677;49.576;10.990;2022-08-21T05:27:01;18.70;99.90
3330;DHT22;1677;49.576;10.990;2022-08-21T05:29:27;18.90;99.90
3330;DHT22;1677;49.576;10.990;2022-08-21T05:31:55;19.50;99.90
3330;DHT22;1677;49.576;10.990;2022-08-21T05:34:22;20.30;99.90
3330;DHT22;1677;49.576;10.990;2022-08-21T05:36:48;20.80;99.90
3330;DHT22;1677;49.576;10.990;2022-08-21T05:39:14;20.90;99.90
3330;DHT22;1677;49.576;10.990;2022-08-21T05:41:40;20.60;99.90
3330;DHT22;1677;49.576;10.990;2022-08-21T05:44:05;20.20;99.90
3330;DHT22;1677;49.576;10.990;2022-08-21T05:46:31;19.90;99.90
3330;DHT22;1677;49.576;10.990;2022-08-21T05:48:57;19.60;99.90
3330;DHT22;1677;49.576;10.990;2022-08-21T05:51:22;19.20;99.90
3330;DHT22;1677;49.576;10.990;2022-08-21T05:53:48;19.00;99.90
3330;DHT22;1677;49.576;10.990;2022-08-21T05:56:14;18.90;99.90
3330;DHT22;1677;49.576;10.990;2022-08-21T05:58:40;18.70;99.90
3330;DHT22;1677;49.576;10.990;2022-08-21T06:01:06;18.70;99.90
3330;DHT22;1677;49.576;10.990;2022-08-21T06:03:36;19.20;99.90
3330;DHT22;1677;49.576;10.990;2022-08-21T06:06:02;20.00;99.90
3330;DHT22;1677;49.576;10.990;2022-08-21T06:08:28;20.50;99.90
3330;DHT22;1677;49.576;10.990;2022-08-21T06:10:55;20.80;99.90
3330;DHT22;1677;49.576;10.990;2022-08-21T06:13:22;20.80;99.90
3330;DHT22;1677;49.576;10.990;2022-08-21T06:15:49;20.40;99.90
3330;DHT22;1677;49.576;10.990;2022-08-21T06:18:15;20.10;99.90
3330;DHT22;1677;49.576;10.990;2022-08-21T06:20:41;19.80;99.90
3330;DHT22;1677;49.576;10.990;2022-08-21T06:23:08;19.40;99.90
3330;DHT22;1677;49.576;10.990;2022-08-21T06:25:34;19.30;99.90
3330;DHT22;1677;49.576;10.990;2022-08-21T06:28:04;19.00;99.90
3330;DHT22;1677;49.576;10.990;2022-08-21T06:30:30;18.90;99.90
3330;DHT22;1677;49.576;10.990;2022-08-21T06:32:56;18.80;99.90
3330;DHT22;1677;49.576;10.990;2022-08-21T06:35:22;19.00;99.90
3330;DHT22;1677;49.576;10.990;2022-08-21T06:37:49;19.60;99.90
3330;DHT22;1677;49.576;10.990;2022-08-21T06:40:15;20.30;99.90
3330;DHT22;1677;49.576;10.990;2022-08-21T06:42:41;20.90;99.90
3330;DHT22;1677;49.576;10.990;2022-08-21T06:45:06;21.10;99.90
3330;DHT22;1677;49.576;10.990;2022-08-21T06:47:32;21.10;99.90
3330;DHT22;1677;49.576;10.990;2022-08-21T06:49:58;21.00;99.90
3330;DHT22;1677;49.576;10.990;2022-08-21T06:52:23;20.70;99.90
3330;DHT22;1677;49.576;10.990;2022-08-21T06:54:49;20.30;99.90
3330;DHT22;1677;49.576;10.990;2022-08-21T06:57:15;19.90;99.90
3330;DHT22;1677;49.576;10.990;2022-08-21T06:59:41;19.60;99.90
3330;DHT22;1677;49.576;10.990;2022-08-21T07:02:06;19.40;99.90
3330;DHT22;1677;49.576;10.990;2022-08-21T07:04:33;19.20;99.90
3330;DHT22;1677;49.576;10.990;2022-08-21T07:06:58;19.00;99.90
3330;DHT22;1677;49.576;10.990;2022-08-21T07:09:24;19.00;99.90
3330;DHT22;1677;49.576;10.990;2022-08-21T07:11:52;19.40;99.90
3330;DHT22;1677;49.576;10.990;2022-08-21T07:14:18;20.20;99.90
3330;DHT22;1677;49.576;10.990;2022-08-21T07:16:44;20.80;99.90
3330;DHT22;1677;49.576;10.990;2022-08-21T07:19:09;21.30;99.90
3330;DHT22;1677;49.576;10.990;2022-08-21T07:21:35;21.30;99.90
3330;DHT22;1677;49.576;10.990;2022-08-21T07:24:00;20.80;99.90
3330;DHT22;1677;49.576;10.990;2022-08-21T07:26:26;20.40;99.90
3330;DHT22;1677;49.576;10.990;2022-08-21T07:28:52;20.00;99.90
3330;DHT22;1677;49.576;10.990;2022-08-21T07:31:20;19.80;99.90
3330;DHT22;1677;49.576;10.990;2022-08-21T07:33:47;19.50;99.90
3330;DHT22;1677;49.576;10.990;2022-08-21T07:36:13;19.40;99.90
3330;DHT22;1677;49.576;10.990;2022-08-21T07:38:38;19.20;99.90
3330;DHT22;1677;49.576;10.990;2022-08-21T07:41:12;19.20;99.90
3330;DHT22;1677;49.576;10.990;2022-08-21T07:43:39;19.30;99.90
3330;DHT22;1677;49.576;10.990;2022-08-21T07:46:04;19.90;99.90
3330;DHT22;1677;49.576;10.990;2022-08-21T07:48:30;20.60;99.90
3330;DHT22;1677;49.576;10.990;2022-08-21T07:50:55;21.20;99.90
3330;DHT22;1677;49.576;10.990;2022-08-21T07:53:21;21.60;99.90
3330;DHT22;1677;49.576;10.990;2022-08-21T07:55:47;21.40;99.90
3330;DHT22;1677;49.576;10.990;2022-08-21T07:58:13;21.10;99.90
3330;DHT22;1677;49.576;10.990;2022-08-21T08:00:39;20.80;99.90
3330;DHT22;1677;49.576;10.990;2022-08-21T08:03:05;20.50;99.90
3330;DHT22;1677;49.576;10.990;2022-08-21T08:05:31;20.20;99.90
3330;DHT22;1677;49.576;10.990;2022-08-21T08:07:57;19.90;99.90
3330;DHT22;1677;49.576;10.990;2022-08-21T08:10:23;19.70;99.90
3330;DHT22;1677;49.576;10.990;2022-08-21T08:12:51;19.60;99.90
3330;DHT22;1677;49.576;10.990;2022-08-21T08:15:19;19.50;99.90
3330;DHT22;1677;49.576;10.990;2022-08-21T08:17:45;19.60;99.90
3330;DHT22;1677;49.576;10.990;2022-08-21T08:20:13;20.30;99.90
3330;DHT22;1677;49.576;10.990;2022-08-21T08:22:40;21.10;99.90
3330;DHT22;1677;49.576;10.990;2022-08-21T08:25:08;21.60;99.90
3330;DHT22;1677;49.576;10.990;2022-08-21T08:27:34;21.60;99.90
3330;DHT22;1677;49.576;10.990;2022-08-21T08:30:00;21.40;99.90
3330;DHT22;1677;49.576;10.990;2022-08-21T08:32:25;21.20;99.90
3330;DHT22;1677;49.576;10.990;2022-08-21T08:34:51;20.90;99.90
3330;DHT22;1677;49.576;10.990;2022-08-21T08:37:19;20.70;99.90
3330;DHT22;1677;49.576;10.990;2022-08-21T08:39:45;20.40;99.90
3330;DHT22;1677;49.576;10.990;2022-08-21T08:44:43;20.00;99.90
3330;DHT22;1677;49.576;10.990;2022-08-21T08:47:13;19.90;99.90
3330;DHT22;1677;49.576;10.990;2022-08-21T08:49:47;19.80;99.90
3330;DHT22;1677;49.576;10.990;2022-08-21T08:52:27;20.00;99.90
3330;DHT22;1677;49.576;10.990;2022-08-21T08:55:08;20.80;99.90
3330;DHT22;1677;49.576;10.990;2022-08-21T08:57:36;21.70;99.90
3330;DHT22;1677;49.576;10.990;2022-08-21T09:00:08;22.10;99.90
3330;DHT22;1677;49.576;10.990;2022-08-21T09:02:38;22.20;99.90
3330;DHT22;1677;49.576;10.990;2022-08-21T09:05:04;22.00;99.90
3330;DHT22;1677;49.576;10.990;2022-08-21T09:13:27;20.90;99.90
3330;DHT22;1677;49.576;10.990;2022-08-21T09:16:20;20.60;99.90
3330;DHT22;1677;49.576;10.990;2022-08-21T09:24:29;20.30;99.90
3330;DHT22;1677;49.576;10.990;2022-08-21T09:27:04;20.50;99.90
3330;DHT22;1677;49.576;10.990;2022-08-21T09:29:37;21.20;99.90
3330;DHT22;1677;49.576;10.990;2022-08-21T09:32:11;21.90;99.90
3330;DHT22;1677;49.576;10.990;2022-08-21T09:34:38;22.50;99.90
3330;DHT22;1677;49.576;10.990;2022-08-21T09:37:04;22.60;99.90
3330;DHT22;1677;49.576;10.990;2022-08-21T09:39:32;22.20;99.90
3330;DHT22;1677;49.576;10.990;2022-08-21T09:42:08;21.90;99.90
3330;DHT22;1677;49.576;10.990;2022-08-21T09:44:37;21.50;99.90
3330;DHT22;1677;49.576;10.990;2022-08-21T09:47:10;21.20;99.90
3330;DHT22;1677;49.576;10.990;2022-08-21T09:49:41;21.00;99.90
3330;DHT22;1677;49.576;10.990;2022-08-21T09:52:20;20.80;99.90
3330;DHT22;1677;49.576;10.990;2022-08-21T09:54:50;20.60;99.90
3330;DHT22;1677;49.576;10.990;2022-08-21T09:57:28;20.50;99.90
3330;DHT22;1677;49.576;10.990;2022-08-21T10:00:26;20.60;99.90
3330;DHT22;1677;49.576;10.990;2022-08-21T10:02:52;21.10;99.90
3330;DHT22;1677;49.576;10.990;2022-08-21T10:05:18;22.00;99.90
3330;DHT22;1677;49.576;10.990;2022-08-21T10:07:44;22.60;99.90
3330;DHT22;1677;49.576;10.990;2022-08-21T10:10:25;23.00;99.90
3330;DHT22;1677;49.576;10.990;2022-08-21T10:13:15;23.00;99.90
3330;DHT22;1677;49.576;10.990;2022-08-21T10:24:08;22.00;99.90
3330;DHT22;1677;49.576;10.990;2022-08-21T10:30:00;21.80;99.90
3330;DHT22;1677;49.576;10.990;2022-08-21T10:37:57;22.70;99.90
3330;DHT22;1677;49.576;10.990;2022-08-21T10:41:06;23.50;99.90
3330;DHT22;1677;49.576;10.990;2022-08-21T10:47:02;25.10;99.90
3330;DHT22;1677;49.576;10.990;2022-08-21T10:55:10;24.90;99.90
3330;DHT22;1677;49.576;10.990;2022-08-21T10:57:44;24.90;99.90
3330;DHT22;1677;49.576;10.990;2022-08-21T11:00:15;25.10;99.90
3330;DHT22;1677;49.576;10.990;2022-08-21T11:03:04;25.10;99.90
3330;DHT22;1677;49.576;10.990;2022-08-21T11:05:38;25.30;99.90
3330;DHT22;1677;49.576;10.990;2022-08-21T11:08:12;25.60;99.90
3330;DHT22;1677;49.576;10.990;2022-08-21T11:10:44;26.20;99.90
3330;DHT22;1677;49.576;10.990;2022-08-21T11:13:19;27.00;99.90
3330;DHT22;1677;49.576;10.990;2022-08-21T11:16:51;27.60;99.90
3330;DHT22;1677;49.576;10.990;2022-08-21T11:18:59;28.20;99.90
3330;DHT22;1677;49.576;10.990;2022-08-21T11:21:39;28.30;99.90
3330;DHT22;1677;49.576;10.990;2022-08-21T11:29:41;28.00;99.30
3330;DHT22;1677;49.576;10.990;2022-08-21T11:37:58;27.90;99.90
3330;DHT22;1677;49.576;10.990;2022-08-21T11:48:34;29.40;94.20
3330;DHT22;1677;49.576;10.990;2022-08-21T11:51:17;29.90;92.90
3330;DHT22;1677;49.576;10.990;2022-08-21T11:54:03;30.20;90.40
3330;DHT22;1677;49.576;10.990;2022-08-21T11:56:35;30.10;90.50
3330;DHT22;1677;49.576;10.990;2022-08-21T11:59:06;29.60;90.20
3330;DHT22;1677;49.576;10.990;2022-08-21T12:01:41;29.30;90.30
3330;DHT22;1677;49.576;10.990;2022-08-21T12:04:29;28.90;90.30
3330;DHT22;1677;49.576;10.990;2022-08-21T12:06:56;28.60;89.50
3330;DHT22;1677;49.576;10.990;2022-08-21T12:12:12;28.30;90.50
3330;DHT22;1677;49.576;10.990;2022-08-21T12:14:45;28.10;90.70
3330;DHT22;1677;49.576;10.990;2022-08-21T12:17:20;28.10;91.40
3330;DHT22;1677;49.576;10.990;2022-08-21T12:22:41;29.70;86.50
3330;DHT22;1677;49.576;10.990;2022-08-21T12:25:17;30.20;84.30
3330;DHT22;1677;49.576;10.990;2022-08-21T12:27:53;30.70;79.50
3330;DHT22;1677;49.576;10.990;2022-08-21T12:33:03;30.40;77.40
3330;DHT22;1677;49.576;10.990;2022-08-21T12:35:41;30.00;81.30
3330;DHT22;1677;49.576;10.990;2022-08-21T12:38:28;29.60;79.00
3330;DHT22;1677;49.576;10.990;2022-08-21T12:41:06;29.30;76.60
3330;DHT22;1677;49.576;10.990;2022-08-21T12:43:40;29.00;79.40
3330;DHT22;1677;49.576;10.990;2022-08-21T12:46:17;28.80;76.20
3330;DHT22;1677;49.576;10.990;2022-08-21T12:48:51;28.60;77.60
3330;DHT22;1677;49.576;10.990;2022-08-21T12:51:31;28.90;80.70
3330;DHT22;1677;49.576;10.990;2022-08-21T12:53:59;29.80;80.00
3330;DHT22;1677;49.576;10.990;2022-08-21T12:56:31;30.60;70.90
3330;DHT22;1677;49.576;10.990;2022-08-21T12:59:03;31.20;70.60
3330;DHT22;1677;49.576;10.990;2022-08-21T13:01:36;31.60;67.50
3330;DHT22;1677;49.576;10.990;2022-08-21T13:04:12;31.60;65.70
3330;DHT22;1677;49.576;10.990;2022-08-21T13:06:40;31.20;64.50
3330;DHT22;1677;49.576;10.990;2022-08-21T13:09:11;30.60;65.90
3330;DHT22;1677;49.576;10.990;2022-08-21T13:11:40;30.10;70.20
3330;DHT22;1677;49.576;10.990;2022-08-21T13:14:30;29.70;71.50
3330;DHT22;1677;49.576;10.990;2022-08-21T13:16:58;29.30;70.40
3330;DHT22;1677;49.576;10.990;2022-08-21T13:19:25;29.10;75.50
3330;DHT22;1677;49.576;10.990;2022-08-21T13:21:52;28.90;75.00
3330;DHT22;1677;49.576;10.990;2022-08-21T13:24:26;28.90;76.10
3330;DHT22;1677;49.576;10.990;2022-08-21T13:26:53;29.50;75.90
3330;DHT22;1677;49.576;10.990;2022-08-21T13:29:22;30.50;73.10
3330;DHT22;1677;49.576;10.990;2022-08-21T13:31:57;31.30;68.00
3330;DHT22;1677;49.576;10.990;2022-08-21T13:34:28;31.80;65.50
3330;DHT22;1677;49.576;10.990;2022-08-21T13:36:58;32.00;64.50
3330;DHT22;1677;49.576;10.990;2022-08-21T13:39:25;31.70;61.50
3330;DHT22;1677;49.576;10.990;2022-08-21T13:41:57;31.30;66.10
3330;DHT22;1677;49.576;10.990;2022-08-21T13:44:33;30.70;65.30
3330;DHT22;1677;49.576;10.990;2022-08-21T13:47:01;30.20;69.80
3330;DHT22;1677;49.576;10.990;2022-08-21T13:49:35;29.80;67.20
3330;DHT22;1677;49.576;10.990;2022-08-21T13:52:02;29.40;67.90
3330;DHT22;1677;49.576;10.990;2022-08-21T13:54:40;29.20;70.40
3330;DHT22;1677;49.576;10.990;2022-08-21T13:57:17;29.00;69.90
3330;DHT22;1677;49.576;10.990;2022-08-21T13:59:43;29.20;71.00
3330;DHT22;1677;49.576;10.990;2022-08-21T14:02:13;30.10;66.40
3330;DHT22;1677;49.576;10.990;2022-08-21T14:04:50;31.00;61.90
3330;DHT22;1677;49.576;10.990;2022-08-21T14:07:20;31.50;60.80
3330;DHT22;1677;49.576;10.990;2022-08-21T14:09:46;31.70;56.20
3330;DHT22;1677;49.576;10.990;2022-08-21T14:12:24;31.80;57.80
3330;DHT22;1677;49.576;10.990;2022-08-21T14:14:51;31.30;57.20
3330;DHT22;1677;49.576;10.990;2022-08-21T14:17:34;30.70;59.50
3330;DHT22;1677;49.576;10.990;2022-08-21T14:20:00;30.20;62.20
3330;DHT22;1677;49.576;10.990;2022-08-21T14:22:38;29.80;61.00
3330;DHT22;1677;49.576;10.990;2022-08-21T14:30:49;28.70;64.80
3330;DHT22;1677;49.576;10.990;2022-08-21T14:33:25;28.70;62.20
3330;DHT22;1677;49.576;10.990;2022-08-21T14:35:51;29.50;60.00
3330;DHT22;1677;49.576;10.990;2022-08-21T14:38:20;30.30;58.60
3330;DHT22;1677;49.576;10.990;2022-08-21T14:40:49;30.90;56.50
3330;DHT22;1677;49.576;10.990;2022-08-21T14:43:15;31.40;55.90
3330;DHT22;1677;49.576;10.990;2022-08-21T14:45:41;31.30;51.30
3330;DHT22;1677;49.576;10.990;2022-08-21T14:48:09;31.20;50.70
3330;DHT22;1677;49.576;10.990;2022-08-21T14:50:34;30.70;52.10
3330;DHT22;1677;49.576;10.990;2022-08-21T14:53:00;30.20;53.30
3330;DHT22;1677;49.576;10.990;2022-08-21T14:55:26;29.70;55.80
3330;DHT22;1677;49.576;10.990;2022-08-21T14:57:53;29.20;56.10
3330;DHT22;1677;49.576;10.990;2022-08-21T15:00:22;28.80;57.40
3330;DHT22;1677;49.576;10.990;2022-08-21T15:02:49;28.50;57.10
3330;DHT22;1677;49.576;10.990;2022-08-21T15:05:15;28.30;56.20
3330;DHT22;1677;49.576;10.990;2022-08-21T15:07:41;28.10;58.30
3330;DHT22;1677;49.576;10.990;2022-08-21T15:10:07;28.40;61.60
3330;DHT22;1677;49.576;10.990;2022-08-21T15:12:33;29.10;58.40
3330;DHT22;1677;49.576;10.990;2022-08-21T15:14:59;29.80;55.60
3330;DHT22;1677;49.576;10.990;2022-08-21T15:17:24;30.30;52.30
3330;DHT22;1677;49.576;10.990;2022-08-21T15:19:50;30.60;50.90
3330;DHT22;1677;49.576;10.990;2022-08-21T15:22:16;30.60;49.80
3330;DHT22;1677;49.576;10.990;2022-08-21T15:24:41;30.50;51.70
3330;DHT22;1677;49.576;10.990;2022-08-21T15:27:09;30.00;51.90
3330;DHT22;1677;49.576;10.990;2022-08-21T15:29:36;29.40;53.00
3330;DHT22;1677;49.576;10.990;2022-08-21T15:32:25;29.00;54.60
3330;DHT22;1677;49.576;10.990;2022-08-21T15:34:51;28.50;53.60
3330;DHT22;1677;49.576;10.990;2022-08-21T15:37:17;28.20;55.90
3330;DHT22;1677;49.576;10.990;2022-08-21T15:39:43;27.90;55.70
3330;DHT22;1677;49.576;10.990;2022-08-21T15:42:09;27.70;57.30
3330;DHT22;1677;49.576;10.990;2022-08-21T15:44:36;27.90;57.90
3330;DHT22;1677;49.576;10.990;2022-08-21T15:47:02;28.60;55.60
3330;DHT22;1677;49.576;10.990;2022-08-21T15:49:27;29.20;55.20
3330;DHT22;1677;49.576;10.990;2022-08-21T15:51:53;29.70;53.50
3330;DHT22;1677;49.576;10.990;2022-08-21T15:54:18;30.00;51.80
3330;DHT22;1677;49.576;10.990;2022-08-21T15:56:46;30.10;50.20
3330;DHT22;1677;49.576;10.990;2022-08-21T15:59:17;30.00;50.40
3330;DHT22;1677;49.576;10.990;2022-08-21T16:01:44;29.60;51.10
3330;DHT22;1677;49.576;10.990;2022-08-21T16:04:11;29.20;51.30
3330;DHT22;1677;49.576;10.990;2022-08-21T16:06:39;28.80;52.60
3330;DHT22;1677;49.576;10.990;2022-08-21T16:09:05;28.50;54.50
3330;DHT22;1677;49.576;10.990;2022-08-21T16:11:30;28.10;54.20
3330;DHT22;1677;49.576;10.990;2022-08-21T16:13:56;27.90;54.60
3330;DHT22;1677;49.576;10.990;2022-08-21T16:16:23;27.60;56.00
3330;DHT22;1677;49.576;10.990;2022-08-21T16:18:50;27.50;54.50
3330;DHT22;1677;49.576;10.990;2022-08-21T16:21:16;28.00;54.10
3330;DHT22;1677;49.576;10.990;2022-08-21T16:23:43;28.70;52.30
3330;DHT22;1677;49.576;10.990;2022-08-21T16:26:11;29.30;51.20
3330;DHT22;1677;49.576;10.990;2022-08-21T16:28:38;29.60;49.90
3330;DHT22;1677;49.576;10.990;2022-08-21T16:31:06;29.80;49.60
3330;DHT22;1677;49.576;10.990;2022-08-21T16:33:44;29.60;49.10
3330;DHT22;1677;49.576;10.990;2022-08-21T16:36:11;29.30;50.20
3330;DHT22;1677;49.576;10.990;2022-08-21T16:38:37;28.90;49.80
3330;DHT22;1677;49.576;10.990;2022-08-21T16:41:05;28.40;51.00
3330;DHT22;1677;49.576;10.990;2022-08-21T16:43:31;28.10;52.20
3330;DHT22;1677;49.576;10.990;2022-08-21T16:45:57;27.80;52.30
3330;DHT22;1677;49.576;10.990;2022-08-21T16:48:23;27.60;53.00
3330;DHT22;1677;49.576;10.990;2022-08-21T16:50:49;27.30;53.60
3330;DHT22;1677;49.576;10.990;2022-08-21T16:53:15;27.10;54.40
3330;DHT22;1677;49.576;10.990;2022-08-21T16:55:41;27.40;54.10
3330;DHT22;1677;49.576;10.990;2022-08-21T16:58:52;28.20;52.40
3330;DHT22;1677;49.576;10.990;2022-08-21T17:00:58;28.80;50.70
3330;DHT22;1677;49.576;10.990;2022-08-21T17:03:30;29.20;50.80
3330;DHT22;1677;49.576;10.990;2022-08-21T17:05:58;29.30;50.10
3330;DHT22;1677;49.576;10.990;2022-08-21T17:08:24;29.20;50.30